Time;durP1;ratioP1;P1;durP2;ratioP2;P2;SDS_P1;SDS_P2;PMS_P1;PMS_P2;Temp;Humidity;BMP_temperature;BMP_pressure;BME280_temperature;BME280_humidity;BME280_pressure;Samples;Min_cycle;Max_cycle;Signal;HPM_P1;HPM_P2
2024/03/21 00:00:45;;;;;;;4.67;2.30;;;;;;;8.58;93.71;102018.63;2084829;28;20257;-67
2024/03/21 00:01:46;;;;;;;5.67;2.60;;;;;;;8.58;93.17;102021.41;2092387;28;20189;-67
2024/03/21 00:02:47;;;;;;;4.53;2.30;;;;;;;8.05;93.00;101929.06;2086729;28;20320;-67
2024/03/21 00:03:48;;;;;;;4.47;2.50;;;;;;;8.67;92.53;102014.34;2084150;28;20196;-67
2024/03/21 00:04:48;;;;;;;7.40;2.53;;;;;;;8.72;92.43;102019.50;2083446;28;20540;-67
2024/03/21 00:05:49;;;;;;;3.07;2.13;;;;;;;8.76;92.45;102014.00;2084412;28;20293;-67
2024/03/21 00:06:49;;;;;;;6.57;2.87;;;;;;;8.81;91.61;102019.19;2083988;28;20255;-67
2024/03/21 00:07:51;;;;;;;6.13;2.50;;;;;;;8.82;91.29;102013.25;2085185;28;20176;-67
2024/03/21 00:08:51;;;;;;;3.97;2.40;;;;;;;8.84;90.18;102013.66;2087221;28;20180;-67
2024/03/21 00:09:52;;;;;;;4.93;2.83;;;;;;;8.80;90.58;102009.28;2088286;28;20441;-67
2024/03/21 00:10:52;;;;;;;6.03;2.87;;;;;;;8.68;90.38;101985.53;2085843;28;20235;-67
2024/03/21 00:11:53;;;;;;;3.80;2.23;;;;;;;8.91;90.62;102007.38;2084906;28;20281;-67
2024/03/21 00:12:53;;;;;;;5.53;2.40;;;;;;;8.91;90.22;102007.38;2085074;28;20210;-67
2024/03/21 00:13:54;;;;;;;4.03;2.40;;;;;;;8.89;90.13;102006.97;2087209;28;20188;-67
2024/03/21 00:14:54;;;;;;;4.70;2.37;;;;;;;7.94;89.00;101854.44;2088865;28;20302;-67
2024/03/21 00:15:55;;;;;;;3.80;2.30;;;;;;;8.89;89.18;102005.00;2086496;28;20211;-67
2024/03/21 00:16:56;;;;;;;3.93;2.20;;;;;;;8.37;88.75;101919.03;2085529;28;20207;-67
2024/03/21 00:17:56;;;;;;;4.03;2.60;;;;;;;8.90;88.58;101990.00;2086984;28;20533;-67
2024/03/21 00:18:57;;;;;;;5.07;2.53;;;;;;;9.02;88.78;101992.41;2086373;28;20208;-67
2024/03/21 00:19:58;;;;;;;4.23;2.70;;;;;;;9.00;88.05;101997.53;2092386;28;20190;-67
2024/03/21 00:20:59;;;;;;;5.83;2.50;;;;;;;9.01;88.26;101995.56;2087814;28;20180;-67
2024/03/21 00:21:59;;;;;;;5.73;2.80;;;;;;;8.98;87.94;101999.13;2086048;28;20438;-67
2024/03/21 00:23:00;;;;;;;6.10;2.87;;;;;;;8.98;88.43;101990.81;2085304;28;20580;-67
2024/03/21 00:24:01;;;;;;;3.17;2.20;;;;;;;8.99;88.09;101990.44;2086490;28;20200;-67
2024/03/21 00:25:03;;;;;;;3.90;2.40;;;;;;;8.41;87.81;101901.31;2086486;28;20454;-67
2024/03/21 00:26:05;;;;;;;5.20;2.50;;;;;;;9.12;87.49;102002.72;2085877;28;20928;-67
2024/03/21 00:27:05;;;;;;;7.57;2.70;;;;;;;9.05;87.59;101996.38;2088128;28;20492;-67
2024/03/21 00:28:06;;;;;;;5.33;2.57;;;;;;;9.04;87.66;101992.81;2087615;28;20440;-67
2024/03/21 00:29:07;;;;;;;3.80;2.40;;;;;;;9.00;87.58;101980.94;2086195;28;20192;-67
2024/03/21 00:30:09;;;;;;;4.87;2.53;;;;;;;9.11;87.28;102006.66;2086532;28;20218;-67
2024/03/21 00:31:10;;;;;;;3.60;2.43;;;;;;;9.16;87.51;101997.19;2085909;28;20446;-67
2024/03/21 00:32:11;;;;;;;4.60;2.73;;;;;;;9.20;87.29;102000.78;2085950;28;20433;-67
2024/03/21 00:33:11;;;;;;;6.33;2.90;;;;;;;9.19;86.45;101990.91;2087120;28;20761;-67
2024/03/21 00:34:12;;;;;;;4.97;2.87;;;;;;;9.20;86.36;101998.81;2088572;28;20223;-67
2024/03/21 00:35:12;;;;;;;4.83;2.77;;;;;;;9.23;85.59;101994.47;2085997;28;20196;-67
2024/03/21 00:36:14;;;;;;;4.77;2.73;;;;;;;9.11;86.05;101976.25;2086311;28;20572;-67
2024/03/21 00:37:15;;;;;;;6.47;2.80;;;;;;;9.26;85.36;101991.72;2086027;28;20550;-67
2024/03/21 00:38:15;;;;;;;4.70;2.80;;;;;;;9.25;85.54;101995.66;2086718;28;20202;-67
2024/03/21 00:39:19;;;;;;;4.10;2.33;;;;;;;9.22;85.54;101992.91;2086742;28;20199;-67
2024/03/21 00:40:20;;;;;;;4.57;2.80;;;;;;;9.24;85.83;101996.06;2088083;28;20184;-67
2024/03/21 00:41:20;;;;;;;6.97;3.07;;;;;;;9.11;85.75;101980.97;2086191;28;20453;-67
2024/03/21 00:42:22;;;;;;;6.80;2.53;;;;;;;9.23;86.24;101989.72;2085936;28;20194;-67
2024/03/21 00:43:22;;;;;;;6.57;2.53;;;;;;;9.24;87.50;101988.56;2086087;28;20235;-67
2024/03/21 00:44:23;;;;;;;3.80;2.30;;;;;;;9.22;87.56;101988.13;2086397;28;20639;-67
2024/03/21 00:45:23;;;;;;;4.80;2.57;;;;;;;9.22;87.47;101982.59;2087859;28;20267;-67
2024/03/21 00:46:24;;;;;;;8.60;2.73;;;;;;;9.23;87.09;101983.41;2088319;28;20238;-67
2024/03/21 00:47:24;;;;;;;5.50;2.97;;;;;;;9.25;87.46;101990.13;2085913;28;20203;-67
2024/03/21 00:48:25;;;;;;;13.17;2.80;;;;;;;9.20;87.33;101992.47;2088383;28;20414;-67
2024/03/21 00:49:25;;;;;;;10.23;3.07;;;;;;;8.92;87.40;101942.59;2085854;28;20211;-67
2024/03/21 00:50:26;;;;;;;5.93;3.13;;;;;;;9.18;87.65;101986.56;2084866;28;20215;-67
2024/03/21 00:51:26;;;;;;;5.17;2.70;;;;;;;9.16;87.46;101992.47;2086521;28;20189;-67
2024/03/21 00:52:27;;;;;;;6.90;2.97;;;;;;;9.16;87.62;101994.44;2087648;28;20194;-67
2024/03/21 00:53:27;;;;;;;4.40;2.67;;;;;;;9.12;87.30;101985.34;2086424;28;20261;-67
2024/03/21 00:54:28;;;;;;;8.47;2.80;;;;;;;9.00;87.73;101966.31;2086353;28;20188;-67
2024/03/21 00:55:28;;;;;;;4.93;2.63;;;;;;;9.10;87.62;101990.47;2088811;28;20719;-67
2024/03/21 00:56:29;;;;;;;7.13;3.10;;;;;;;9.07;87.56;101989.25;2092521;28;20183;-67
2024/03/21 00:57:29;;;;;;;4.87;2.40;;;;;;;9.04;87.82;101981.75;2086261;28;20179;-67
2024/03/21 00:58:30;;;;;;;7.57;2.77;;;;;;;8.19;88.15;101860.13;2088621;28;20222;-67
2024/03/21 00:59:31;;;;;;;8.63;2.47;;;;;;;8.67;88.04;101925.91;2085609;28;20191;-67
2024/03/21 01:00:32;;;;;;;4.17;2.47;;;;;;;8.71;88.80;101948.81;2087100;28;20203;-67
2024/03/21 01:01:32;;;;;;;12.40;2.57;;;;;;;8.93;88.90;101980.94;2077625;28;20462;-67
2024/03/21 01:02:34;;;;;;;4.20;2.50;;;;;;;8.91;89.58;101986.03;2084515;28;20188;-67
2024/03/21 01:03:35;;;;;;;4.57;2.50;;;;;;;8.89;89.28;101985.66;2085916;28;20183;-67
2024/03/21 01:04:35;;;;;;;5.00;2.60;;;;;;;8.90;89.07;101978.94;2088666;28;20949;-67
2024/03/21 01:05:36;;;;;;;3.83;2.50;;;;;;;8.91;88.69;101980.50;2086116;28;20210;-67
2024/03/21 01:06:36;;;;;;;4.17;2.57;;;;;;;8.83;89.26;101967.06;2085574;28;20196;-67
2024/03/21 01:07:37;;;;;;;4.27;2.37;;;;;;;8.02;89.43;101847.81;2085408;28;20239;-67
2024/03/21 01:08:37;;;;;;;5.67;2.80;;;;;;;8.84;89.91;101979.69;2085692;28;20695;-67
2024/03/21 01:09:38;;;;;;;3.13;1.90;;;;;;;8.82;89.54;101977.31;2087614;28;20188;-67
2024/03/21 01:10:49;;;;;;;8.83;2.87;;;;;;;8.78;89.45;101967.41;2087882;28;20231;-67
2024/03/21 01:11:52;;;;;;;7.00;2.67;;;;;;;8.76;88.94;101964.25;2088529;28;20255;-67
2024/03/21 01:12:52;;;;;;;6.23;2.70;;;;;;;8.74;89.17;101964.66;2085925;28;20493;-67
2024/03/21 01:13:53;;;;;;;3.97;2.30;;;;;;;8.78;88.72;101964.66;2085598;28;20958;-67
2024/03/21 01:14:53;;;;;;;4.27;2.60;;;;;;;8.74;88.79;101961.88;2085641;28;20195;-67
2024/03/21 01:15:54;;;;;;;4.30;2.30;;;;;;;8.76;88.93;101959.50;2086487;28;20227;-67
2024/03/21 01:16:54;;;;;;;4.23;2.50;;;;;;;8.75;88.70;101963.47;2085415;28;20215;-67
2024/03/21 01:17:56;;;;;;;4.20;2.40;;;;;;;8.75;89.11;101962.66;2088414;28;20748;-67
2024/03/21 01:18:57;;;;;;;7.33;2.57;;;;;;;8.68;88.74;101965.41;2084632;28;20196;-67
2024/03/21 01:19:58;;;;;;;3.30;2.10;;;;;;;8.66;88.65;101960.25;2084527;28;20451;-67
2024/03/21 01:20:58;;;;;;;4.30;2.50;;;;;;;8.62;88.94;101964.19;2085500;28;20658;-67
2024/03/21 01:21:59;;;;;;;5.93;2.97;;;;;;;8.63;88.59;101963.00;2085467;28;20180;-67
2024/03/21 01:22:59;;;;;;;4.13;2.60;;;;;;;8.56;89.35;101954.69;2085798;28;20198;-67
2024/03/21 01:24:00;;;;;;;4.27;2.50;;;;;;;8.57;89.27;101951.50;2088609;28;20673;-67
2024/03/21 01:25:00;;;;;;;6.37;2.83;;;;;;;8.51;90.40;101955.06;2085384;28;20207;-67
2024/03/21 01:26:02;;;;;;;3.63;2.23;;;;;;;7.88;90.28;101866.22;2085990;28;20635;-67
2024/03/21 01:27:02;;;;;;;6.87;1.97;;;;;;;8.35;90.35;101922.19;2084867;28;20748;-67
2024/03/21 01:28:04;;;;;;;5.10;2.70;;;;;;;8.52;89.95;101954.66;2088771;28;20900;-67
2024/03/21 01:29:05;;;;;;;4.87;2.53;;;;;;;8.40;89.38;101945.91;2085453;28;20184;-67
2024/03/21 01:30:06;;;;;;;4.27;2.43;;;;;;;8.49;89.87;101958.19;2088397;28;20524;-67
2024/03/21 01:31:25;;;;;;;11.37;2.70;;;;;;;8.32;90.21;101933.22;2084763;28;20446;-67
2024/03/21 01:32:25;;;;;;;3.60;1.97;;;;;;;8.43;90.42;101959.75;2086370;28;20559;-67
2024/03/21 01:33:27;;;;;;;5.63;2.80;;;;;;;8.38;91.67;101954.56;2086056;28;20580;-67
2024/03/21 01:34:27;;;;;;;4.33;2.50;;;;;;;8.41;91.08;101950.25;2085691;28;20290;-67
2024/03/21 01:35:28;;;;;;;5.77;2.10;;;;;;;8.42;91.08;101946.31;2089733;28;20454;-67
2024/03/21 01:36:30;;;;;;;4.70;2.50;;;;;;;8.00;91.37;101885.25;2085528;28;20185;-67
2024/03/21 01:37:30;;;;;;;4.70;2.60;;;;;;;8.41;91.10;101951.03;2086690;28;20183;-67
2024/03/21 01:38:31;;;;;;;4.90;2.57;;;;;;;8.44;90.55;101943.94;2087206;28;20470;-67
2024/03/21 01:39:31;;;;;;;3.80;2.53;;;;;;;7.85;91.42;101855.97;2086248;28;20199;-67
2024/03/21 01:40:33;;;;;;;3.77;2.23;;;;;;;8.39;91.07;101942.34;2085518;28;20266;-67
2024/03/21 01:41:33;;;;;;;5.73;2.60;;;;;;;8.35;91.31;101949.81;2086219;28;20206;-67
2024/03/21 01:42:37;;;;;;;4.27;2.40;;;;;;;8.32;91.18;101949.78;2084551;28;20444;-67
2024/03/21 01:43:39;;;;;;;4.70;2.53;;;;;;;8.36;91.27;101947.84;2086853;28;20190;-67
2024/03/21 01:44:39;;;;;;;4.10;2.33;;;;;;;8.34;91.59;101951.00;2088389;28;20431;-67
2024/03/21 01:45:40;;;;;;;3.10;2.00;;;;;;;8.32;91.31;101949.78;2089843;28;20871;-67
2024/03/21 01:46:41;;;;;;;4.20;2.53;;;;;;;7.90;91.28;101891.50;2086920;28;20208;-67
2024/03/21 01:47:42;;;;;;;3.33;2.10;;;;;;;7.87;91.92;101879.25;2089344;28;20209;-67
2024/03/21 01:48:50;;;;;;;4.82;2.70;;;;;;;8.28;91.47;101947.00;2085375;28;20277;-67
2024/03/21 01:49:50;;;;;;;4.47;2.72;;;;;;;8.25;92.10;101947.00;2092001;28;20205;-67
2024/03/21 01:50:51;;;;;;;4.83;2.57;;;;;;;8.20;92.44;101948.13;2085882;28;20670;-67
2024/03/21 01:51:52;;;;;;;3.80;2.60;;;;;;;8.12;92.94;101937.41;2087440;28;20215;-67
2024/03/21 01:52:52;;;;;;;4.10;2.87;;;;;;;8.14;93.47;101941.34;2086893;28;20259;-67
2024/03/21 01:53:55;;;;;;;5.27;2.50;;;;;;;8.12;93.72;101943.72;2085436;28;20778;-67
2024/03/21 01:54:56;;;;;;;4.60;2.53;;;;;;;8.10;93.61;101939.75;2090548;28;20696;-67
2024/03/21 01:55:59;;;;;;;5.53;2.50;;;;;;;7.90;93.95;101924.63;2086128;28;20652;-67
2024/03/21 01:56:59;;;;;;;7.43;2.78;;;;;;;8.10;93.95;101946.06;2084721;28;20702;-67
2024/03/21 01:58:00;;;;;;;3.00;2.23;;;;;;;8.07;93.54;101940.50;2087800;28;20640;-67
2024/03/21 01:59:00;;;;;;;5.93;3.40;;;;;;;8.02;94.21;101940.88;2085313;28;20202;-67
2024/03/21 02:00:03;;;;;;;4.67;2.77;;;;;;;7.93;94.65;101943.97;2090267;28;20189;-67
2024/03/21 02:01:24;;;;;;;4.30;2.72;;;;;;;7.66;95.44;101895.66;2088342;28;20675;-67
2024/03/21 02:02:27;;;;;;;6.67;2.80;;;;;;;7.95;95.50;101941.59;2085250;28;20243;-67
2024/03/21 02:03:28;;;;;;;6.65;2.60;;;;;;;7.95;96.10;101940.84;2084623;28;20455;-67
2024/03/21 02:04:28;;;;;;;4.47;2.60;;;;;;;7.99;96.15;101944.41;2085792;28;20187;-67
2024/03/21 02:05:29;;;;;;;5.33;2.87;;;;;;;7.95;97.48;101941.59;2085691;28;20192;-67
2024/03/21 02:06:32;;;;;;;6.20;2.33;;;;;;;8.00;97.56;101937.72;2087909;28;20181;-67
2024/03/21 02:07:33;;;;;;;3.67;2.20;;;;;;;7.97;97.96;101936.50;2085398;28;20204;-67
2024/03/21 02:08:33;;;;;;;4.07;2.43;;;;;;;7.88;97.93;101924.19;2084538;28;20235;-67
2024/03/21 02:09:34;;;;;;;3.97;2.23;;;;;;;7.93;97.94;101940.41;2086284;28;20661;-67
2024/03/21 02:10:36;;;;;;;4.00;2.37;;;;;;;7.90;98.38;101941.97;2090012;28;24182;-67
2024/03/21 02:11:36;;;;;;;3.40;2.13;;;;;;;7.88;98.80;101936.03;2086403;28;20238;-67
2024/03/21 02:12:48;;;;;;;5.70;2.67;;;;;;;7.85;98.33;101938.78;2087586;28;20824;-67
2024/03/21 02:13:50;;;;;;;4.38;2.63;;;;;;;7.82;99.06;101936.75;2087731;28;20661;-67
2024/03/21 02:14:52;;;;;;;5.57;2.22;;;;;;;7.82;100.00;101937.56;2084616;28;20198;-67
2024/03/21 02:15:52;;;;;;;6.72;2.35;;;;;;;7.83;100.00;101935.59;2085386;28;20196;-67
2024/03/21 02:16:53;;;;;;;6.17;2.77;;;;;;;7.76;100.00;101933.59;2085021;28;20203;-67
2024/03/21 02:17:53;;;;;;;6.03;2.60;;;;;;;7.75;100.00;101937.50;2085390;28;20209;-67
2024/03/21 02:18:54;;;;;;;3.90;2.50;;;;;;;7.74;100.00;101930.41;2085055;28;20207;-67
2024/03/21 02:19:54;;;;;;;5.33;2.40;;;;;;;7.21;100.00;101848.34;2087904;28;20663;-67
2024/03/21 02:20:55;;;;;;;5.13;2.40;;;;;;;7.73;99.54;101928.00;2084210;28;20192;-67
2024/03/21 02:23:15;;;;;;;5.05;2.53;;;;;;;7.75;100.00;101931.97;2085691;28;20196;-67
2024/03/21 02:24:15;;;;;;;4.00;2.70;;;;;;;7.73;100.00;101928.81;2085541;28;20188;-67
2024/03/21 02:25:16;;;;;;;4.53;2.60;;;;;;;7.72;100.00;101926.44;2085841;28;20214;-67
2024/03/21 02:26:17;;;;;;;7.10;3.15;;;;;;;7.71;100.00;101930.38;2084684;28;20181;-67
2024/03/21 02:27:20;;;;;;;8.17;2.90;;;;;;;7.69;100.00;101925.22;2085015;28;20211;-67
2024/03/21 02:28:21;;;;;;;8.88;2.80;;;;;;;7.54;100.00;101903.44;2087713;28;20178;-67
2024/03/21 02:29:22;;;;;;;5.30;3.03;;;;;;;7.66;100.00;101928.78;2085020;28;20194;-67
2024/03/21 02:30:23;;;;;;;9.02;2.97;;;;;;;7.64;100.00;101933.84;2084495;28;20222;-67
2024/03/21 02:31:23;;;;;;;6.50;2.60;;;;;;;7.60;100.00;101930.28;2084214;28;20203;-67
2024/03/21 02:32:24;;;;;;;5.50;3.03;;;;;;;7.60;100.00;101930.28;2084977;28;20200;-67
2024/03/21 02:33:24;;;;;;;4.57;2.20;;;;;;;6.55;100.00;101763.84;2085719;28;20255;-67
2024/03/21 02:34:25;;;;;;;5.00;2.70;;;;;;;7.57;100.00;101927.47;2096273;28;20227;-67
2024/03/21 02:35:25;;;;;;;7.23;2.50;;;;;;;7.55;100.00;101924.31;2085805;28;20200;-67
2024/03/21 02:36:26;;;;;;;5.73;3.20;;;;;;;7.29;100.00;101872.06;2085157;28;20273;-67
2024/03/21 02:37:27;;;;;;;4.67;2.30;;;;;;;7.49;100.00;101896.28;2084221;28;20337;-67
2024/03/21 02:38:27;;;;;;;5.30;2.60;;;;;;;7.58;100.00;101915.28;2084923;28;20660;-67
2024/03/21 02:39:28;;;;;;;7.03;2.80;;;;;;;7.25;100.00;101865.72;2084758;28;20238;-67
2024/03/21 02:40:28;;;;;;;5.13;2.83;;;;;;;7.52;100.00;101923.13;2087143;28;20259;-67
2024/03/21 02:41:29;;;;;;;5.03;2.20;;;;;;;7.54;100.00;101920.75;2085649;28;20200;-67
2024/03/21 02:42:30;;;;;;;4.07;2.67;;;;;;;7.55;100.00;101924.31;2085260;28;20659;-67
2024/03/21 02:43:30;;;;;;;3.77;2.40;;;;;;;7.54;100.00;101922.75;2084937;28;20621;-67
2024/03/21 02:44:31;;;;;;;6.33;2.43;;;;;;;7.54;100.00;101918.00;2085149;28;20743;-67
2024/03/21 02:45:31;;;;;;;3.73;2.30;;;;;;;7.48;100.00;101907.72;2088997;28;20191;-67
2024/03/21 02:46:32;;;;;;;4.63;2.60;;;;;;;7.51;100.00;101916.03;2087741;28;20185;-67
2024/03/21 02:47:32;;;;;;;4.10;2.50;;;;;;;7.55;100.00;101916.03;2084839;28;20197;-67
2024/03/21 02:48:36;;;;;;;5.87;2.87;;;;;;;7.54;100.00;101909.72;2084428;28;20193;-67
2024/03/21 02:49:37;;;;;;;3.20;2.00;;;;;;;7.22;100.00;101883.03;2084617;28;20274;-67
2024/03/21 02:50:38;;;;;;;4.37;2.50;;;;;;;7.52;100.00;101906.56;2084426;28;20409;-67
2024/03/21 02:51:39;;;;;;;3.95;2.40;;;;;;;7.56;100.00;101912.09;2085338;28;20276;-67
2024/03/21 02:52:39;;;;;;;3.37;2.30;;;;;;;7.54;100.00;101911.72;2087397;28;20436;-67
2024/03/21 02:53:40;;;;;;;4.83;2.90;;;;;;;6.83;100.00;101799.94;2085842;28;20278;-67
2024/03/21 02:54:40;;;;;;;3.90;2.43;;;;;;;7.54;100.00;101908.94;2085110;28;20220;-67
2024/03/21 02:55:41;;;;;;;6.37;2.70;;;;;;;7.52;100.00;101914.84;2085485;28;20189;-67
2024/03/21 02:56:41;;;;;;;4.80;2.43;;;;;;;7.50;100.00;101913.63;2084715;28;20246;-67
2024/03/21 02:57:42;;;;;;;4.57;2.80;;;;;;;7.29;100.00;101877.59;2085590;28;20181;-67
2024/03/21 02:58:42;;;;;;;3.47;2.33;;;;;;;7.48;100.00;101908.50;2087684;28;20586;-67
2024/03/21 02:59:43;;;;;;;4.70;2.53;;;;;;;7.49;100.00;101910.06;2083865;28;20681;-67
2024/03/21 03:00:43;;;;;;;5.50;2.67;;;;;;;6.82;100.00;101797.59;2083701;28;20218;-67
2024/03/21 03:01:44;;;;;;;5.97;2.70;;;;;;;7.52;100.00;101903.00;2084828;28;20194;-67
2024/03/21 03:02:45;;;;;;;6.37;3.10;;;;;;;7.56;100.00;101903.84;2084575;28;20194;-67
2024/03/21 03:03:45;;;;;;;4.00;2.43;;;;;;;7.60;99.97;101904.66;2084842;28;20242;-67
2024/03/21 03:04:46;;;;;;;4.90;2.50;;;;;;;7.02;99.17;101805.25;2087716;28;20205;-67
2024/03/21 03:05:46;;;;;;;3.87;2.30;;;;;;;7.67;98.84;101908.28;2084130;28;20192;-67
2024/03/21 03:06:47;;;;;;;4.23;2.53;;;;;;;7.61;98.79;101907.03;2084863;28;20219;-67
2024/03/21 03:07:47;;;;;;;4.53;3.00;;;;;;;7.62;98.00;101902.31;2084251;28;20674;-67
2024/03/21 03:08:48;;;;;;;5.33;2.60;;;;;;;7.68;97.87;101906.31;2084982;28;20191;-67
2024/03/21 03:09:48;;;;;;;5.13;2.67;;;;;;;7.70;97.83;101901.97;2087478;28;20185;-67
2024/03/21 03:10:49;;;;;;;6.87;3.13;;;;;;;7.68;97.13;101904.34;2087131;28;20718;-67
2024/03/21 03:11:49;;;;;;;6.83;2.80;;;;;;;7.68;97.30;101901.56;2090273;28;20197;-67
2024/03/21 03:12:51;;;;;;;7.43;2.47;;;;;;;6.73;96.74;101747.50;2086576;28;20205;-67
2024/03/21 03:13:51;;;;;;;9.57;3.08;;;;;;;7.49;96.37;101892.75;2084953;28;20190;-67
2024/03/21 03:14:52;;;;;;;8.40;3.00;;;;;;;7.46;96.52;101887.97;2085314;28;20225;-67
2024/03/21 03:15:52;;;;;;;6.03;2.80;;;;;;;7.48;97.68;101911.25;2083856;28;20305;-67
2024/03/21 03:16:53;;;;;;;4.60;2.40;;;;;;;6.91;98.46;101820.09;2086287;28;20199;-67
2024/03/21 03:17:53;;;;;;;7.97;2.97;;;;;;;7.40;99.12;101904.09;2084482;28;20197;-67
2024/03/21 03:18:54;;;;;;;4.03;2.50;;;;;;;6.97;98.97;101849.69;2084633;28;20196;-67
2024/03/21 03:19:54;;;;;;;4.77;2.63;;;;;;;6.98;100.00;101878.84;2087947;28;20196;-67
2024/03/21 03:20:55;;;;;;;5.93;2.73;;;;;;;7.16;100.00;101893.63;2084128;28;20465;-67
2024/03/21 03:21:55;;;;;;;6.60;2.70;;;;;;;7.23;100.00;101907.47;2084637;28;20203;-67
2024/03/21 03:22:56;;;;;;;5.10;2.80;;;;;;;7.27;100.00;101899.22;2087482;28;20624;-67
2024/03/21 03:23:56;;;;;;;4.10;2.30;;;;;;;7.32;100.00;101907.16;2085099;28;20196;-67
2024/03/21 03:24:57;;;;;;;5.97;2.87;;;;;;;7.37;100.00;101904.03;2084854;28;20215;-67
2024/03/21 03:25:57;;;;;;;5.63;2.70;;;;;;;7.32;100.00;101907.16;2085194;28;20198;-67
2024/03/21 03:26:58;;;;;;;4.97;2.53;;;;;;;7.30;100.00;101906.75;2083078;28;20194;-67
2024/03/21 03:27:58;;;;;;;5.87;2.87;;;;;;;7.34;100.00;101902.06;2085413;28;20195;-67
2024/03/21 03:28:59;;;;;;;6.47;2.53;;;;;;;7.37;100.00;101904.84;2086210;28;20192;-67
2024/03/21 03:29:59;;;;;;;4.53;2.70;;;;;;;7.42;100.00;101900.94;2083784;28;20226;-67
2024/03/21 03:31:00;;;;;;;3.23;2.20;;;;;;;7.45;100.00;101908.47;2086008;28;20198;-67
2024/03/21 03:32:03;;;;;;;5.27;2.70;;;;;;;7.49;100.00;101895.50;2084649;28;20252;-67
2024/03/21 03:35:33;;;;;;;3.97;2.65;;;;;;;7.51;100.00;101899.47;2083436;28;20815;-67
2024/03/21 03:35:45;;;;;;;5.13;2.63;;;;;;;7.22;99.76;101845.22;2059284;28;20753;-67
2024/03/21 03:36:45;;;;;;;4.13;2.70;;;;;;;7.61;99.25;101903.47;2079491;28;20600;-67
2024/03/21 03:37:46;;;;;;;5.90;2.50;;;;;;;7.56;99.31;101904.63;2085041;28;20660;-67
2024/03/21 03:38:46;;;;;;;4.90;2.60;;;;;;;7.61;98.79;101906.25;2087349;28;20178;-67
2024/03/21 03:39:47;;;;;;;4.37;2.63;;;;;;;7.08;98.25;101816.75;2084866;28;20720;-67
2024/03/21 03:40:47;;;;;;;4.10;2.33;;;;;;;7.54;97.81;101897.91;2084257;28;20188;-67
2024/03/21 03:41:48;;;;;;;4.13;2.60;;;;;;;7.61;98.01;101901.53;2084705;28;20199;-67
2024/03/21 03:42:48;;;;;;;5.63;2.67;;;;;;;7.64;98.36;101905.50;2084389;28;20241;-67
2024/03/21 03:43:49;;;;;;;4.93;2.70;;;;;;;7.71;97.75;101902.78;2085352;28;20565;-67
2024/03/21 03:44:50;;;;;;;4.37;2.53;;;;;;;7.72;97.33;101902.41;2087467;28;20506;-67
2024/03/21 03:45:50;;;;;;;4.53;2.57;;;;;;;7.67;97.89;101902.75;2091150;28;20226;-67
2024/03/21 03:46:50;;;;;;;4.47;2.43;;;;;;;7.65;97.84;101926.38;2086286;28;20314;-67
2024/03/21 03:47:51;;;;;;;5.53;2.60;;;;;;;7.36;98.57;101864.66;2087038;28;20199;-67
2024/03/21 03:48:51;;;;;;;3.60;2.47;;;;;;;7.53;98.69;101908.16;2090964;28;21026;-67
2024/03/21 03:49:52;;;;;;;6.20;2.37;;;;;;;7.47;99.17;101900.59;2084995;28;20180;-67
2024/03/21 03:50:52;;;;;;;5.50;2.77;;;;;;;7.53;99.67;101907.38;2087084;28;20193;-67
2024/03/21 03:51:55;;;;;;;5.67;2.50;;;;;;;7.58;99.58;101907.03;2086069;28;20250;-67
2024/03/21 03:53:14;;;;;;;4.28;2.17;;;;;;;7.59;99.71;101912.13;2086504;28;20205;-67
2024/03/21 03:54:14;;;;;;;4.30;2.28;;;;;;;7.50;100.00;101888.81;2087681;28;20242;-67
2024/03/21 03:55:15;;;;;;;6.50;2.83;;;;;;;7.24;100.00;101839.34;2086203;28;20198;-67
2024/03/21 03:56:16;;;;;;;5.33;2.40;;;;;;;7.72;100.00;101915.41;2086081;28;20194;-67
2024/03/21 03:57:17;;;;;;;4.93;2.60;;;;;;;7.76;100.00;101910.69;2085641;28;20176;-67
2024/03/21 03:58:17;;;;;;;4.67;2.57;;;;;;;7.75;100.00;101912.66;2086781;28;20186;-67
2024/03/21 03:59:18;;;;;;;5.37;2.97;;;;;;;7.76;100.00;101905.19;2088791;28;20190;-67
2024/03/21 04:00:20;;;;;;;4.93;2.43;;;;;;;7.81;100.00;101911.16;2086264;28;20272;-67
2024/03/21 04:01:21;;;;;;;4.53;2.47;;;;;;;7.79;98.25;101904.44;2086804;28;20276;-67
2024/03/21 04:02:21;;;;;;;6.57;2.67;;;;;;;7.83;97.17;101908.00;2085210;28;20202;-67
2024/03/21 04:03:22;;;;;;;4.03;2.33;;;;;;;7.80;97.99;101906.78;2086455;28;20575;-67
2024/03/21 04:04:22;;;;;;;4.40;2.33;;;;;;;7.80;97.46;101912.31;2086296;28;20576;-67
2024/03/21 04:05:24;;;;;;;4.77;2.40;;;;;;;7.86;97.94;101912.75;2088936;28;20187;-67
2024/03/21 04:06:25;;;;;;;4.28;2.53;;;;;;;7.66;97.16;101886.56;2086926;28;20242;-67
2024/03/21 04:07:25;;;;;;;9.47;2.70;;;;;;;7.39;97.19;101835.53;2086425;28;20678;-67
2024/03/21 04:08:26;;;;;;;4.73;3.00;;;;;;;7.86;98.30;101910.00;2085627;28;20277;-67
2024/03/21 04:09:26;;;;;;;4.30;2.27;;;;;;;7.89;99.01;101907.25;2086785;28;20202;-67
2024/03/21 04:10:27;;;;;;;5.80;2.53;;;;;;;7.89;98.81;101906.47;2093823;28;20209;-67
2024/03/21 04:11:27;;;;;;;4.03;2.50;;;;;;;7.88;98.52;101907.63;2089422;28;20572;-67
2024/03/21 04:12:28;;;;;;;4.93;2.73;;;;;;;7.89;97.99;101909.25;2085958;28;20867;-67
2024/03/21 04:13:28;;;;;;;4.73;2.70;;;;;;;7.91;97.72;101910.44;2086753;28;20202;-67
2024/03/21 04:14:29;;;;;;;4.30;2.53;;;;;;;7.90;97.67;101908.06;2085926;28;21655;-67
2024/03/21 04:15:29;;;;;;;5.60;2.50;;;;;;;7.89;96.28;101903.72;2085864;28;20177;-67
2024/03/21 04:16:30;;;;;;;4.70;2.90;;;;;;;7.91;97.05;101910.44;2086877;28;20273;-67
2024/03/21 04:17:30;;;;;;;7.47;2.63;;;;;;;8.07;97.49;101910.16;2088358;28;20188;-67
2024/03/21 04:18:30;;;;;;;6.00;2.90;;;;;;;8.03;97.68;101910.13;2086954;28;20272;-67
2024/03/21 04:19:31;;;;;;;5.93;2.87;;;;;;;7.97;97.46;101914.44;2086261;28;20199;-67
2024/03/21 04:20:31;;;;;;;10.13;2.60;;;;;;;7.98;96.86;101910.47;2085895;28;20571;-67
2024/03/21 04:21:32;;;;;;;5.27;2.80;;;;;;;8.02;97.83;101914.06;2086581;28;20224;-67
2024/03/21 04:22:33;;;;;;;5.23;2.67;;;;;;;7.84;96.48;101888.28;2086842;28;20200;-67
2024/03/21 04:23:34;;;;;;;5.75;2.85;;;;;;;7.94;96.08;101914.41;2087747;28;20200;-67
2024/03/21 04:24:37;;;;;;;4.10;2.37;;;;;;;7.57;95.93;101847.47;2086174;28;20688;-67
2024/03/21 04:25:38;;;;;;;5.45;2.72;;;;;;;8.00;97.66;101905.34;2086450;28;20655;-67
2024/03/21 04:26:38;;;;;;;3.93;2.40;;;;;;;7.98;97.50;101907.72;2086032;28;20574;-67
2024/03/21 04:27:39;;;;;;;4.87;2.50;;;;;;;8.02;97.83;101910.50;2085851;28;20206;-67
2024/03/21 04:28:39;;;;;;;4.97;2.37;;;;;;;8.06;99.02;101911.31;2085734;28;20239;-67
2024/03/21 04:29:40;;;;;;;6.63;2.70;;;;;;;8.08;97.85;101911.72;2088472;28;20185;-67
2024/03/21 04:30:40;;;;;;;4.20;2.53;;;;;;;8.11;99.12;101908.19;2085503;28;20214;-67
2024/03/21 04:31:41;;;;;;;6.57;2.50;;;;;;;8.10;100.00;101901.88;2086585;28;20182;-67
2024/03/21 04:32:41;;;;;;;4.13;2.70;;;;;;;8.10;98.78;101907.41;2085657;28;20195;-67
2024/03/21 04:33:42;;;;;;;6.63;2.77;;;;;;;8.17;96.02;101909.41;2086744;28;20200;-67
2024/03/21 04:34:46;;;;;;;4.47;2.53;;;;;;;8.11;95.27;101906.22;2087246;28;20641;-67
2024/03/21 04:35:46;;;;;;;6.15;2.72;;;;;;;8.16;95.68;101905.09;2088674;28;20196;-67
2024/03/21 04:36:47;;;;;;;7.80;2.80;;;;;;;7.30;94.19;101769.69;2084560;28;20194;-67
2024/03/21 04:37:48;;;;;;;4.53;2.57;;;;;;;8.17;93.38;101903.91;2085496;28;20652;-67
2024/03/21 04:38:48;;;;;;;6.40;2.90;;;;;;;8.23;94.46;101908.72;2084522;28;20629;-67
2024/03/21 04:39:49;;;;;;;4.60;2.77;;;;;;;8.23;94.52;101908.72;2086266;28;20737;-67
2024/03/21 04:40:49;;;;;;;7.47;3.00;;;;;;;7.28;94.64;101751.94;2084595;28;20196;-67
2024/03/21 04:41:50;;;;;;;4.07;2.37;;;;;;;8.26;95.50;101905.16;2087894;28;20292;-67
2024/03/21 04:42:51;;;;;;;4.30;2.17;;;;;;;8.29;94.78;101912.69;2085302;28;20254;-67
2024/03/21 04:43:52;;;;;;;5.40;2.00;;;;;;;8.25;93.98;101914.63;2086663;28;20721;-67
2024/03/21 04:44:52;;;;;;;4.50;2.40;;;;;;;7.41;95.35;101776.06;2086243;28;20530;-67
2024/03/21 04:45:53;;;;;;;5.60;2.73;;;;;;;8.23;95.24;101907.91;2086167;28;21108;-67
2024/03/21 04:46:53;;;;;;;8.87;2.53;;;;;;;7.61;96.16;101812.44;2085407;28;20186;-67
2024/03/21 04:47:53;;;;;;;7.70;2.40;;;;;;;8.26;96.76;101912.69;2088465;28;20181;-67
2024/03/21 04:48:54;;;;;;;9.27;2.90;;;;;;;8.25;96.20;101911.09;2085631;28;20591;-67
2024/03/21 04:49:55;;;;;;;4.77;2.87;;;;;;;8.27;96.42;101911.50;2086472;28;20678;-67